createdAt,value
2017-11-01T00:00:44.624Z,3.62
2017-11-01T00:01:44.499Z,3.52
2017-11-01T00:02:44.372Z,3.64
2017-11-01T00:03:44.246Z,3.57
2017-11-01T00:04:44.122Z,3.64
2017-11-01T00:05:43.995Z,3.62
2017-11-01T00:06:43.870Z,3.58
2017-11-01T00:07:43.743Z,3.58
2017-11-01T00:08:43.623Z,3.54
2017-11-01T00:09:43.492Z,3.70
2017-11-01T00:10:43.366Z,3.50
2017-11-01T00:11:43.245Z,3.61
2017-11-01T00:12:43.117Z,3.58
2017-11-01T00:13:42.990Z,3.49
2017-11-01T00:14:42.864Z,3.62
2017-11-01T00:15:42.739Z,3.49
2017-11-01T00:16:42.612Z,3.47
2017-11-01T00:17:42.488Z,3.47
2017-11-01T00:18:42.362Z,3.50
2017-11-01T00:19:42.236Z,3.46
2017-11-01T00:20:42.111Z,3.49
2017-11-01T00:21:41.986Z,3.46
2017-11-01T00:22:41.859Z,3.52
2017-11-01T00:23:41.733Z,3.50
2017-11-01T00:24:41.695Z,3.44
2017-11-01T00:25:41.483Z,3.42
2017-11-01T00:26:41.361Z,3.42
2017-11-01T00:27:41.236Z,3.43
2017-11-01T00:28:41.105Z,3.34
2017-11-01T00:29:40.980Z,3.44
2017-11-01T00:30:40.855Z,3.44
2017-11-01T00:31:40.728Z,3.54
2017-11-01T00:32:40.605Z,3.49
2017-11-01T00:33:40.476Z,3.60
2017-11-01T00:34:40.352Z,3.52
2017-11-01T00:35:40.229Z,3.62
2017-11-01T00:36:40.104Z,3.53
2017-11-01T00:37:39.973Z,3.53
2017-11-01T00:38:39.849Z,3.61
2017-11-01T00:39:39.732Z,3.60
2017-11-01T00:40:39.597Z,3.54
2017-11-01T00:41:39.472Z,3.49
2017-11-01T00:42:39.345Z,3.50
2017-11-01T00:43:39.219Z,3.53
2017-11-01T00:44:39.094Z,3.52
2017-11-01T00:45:38.969Z,3.47
2017-11-01T00:46:38.844Z,3.42
2017-11-01T00:47:38.717Z,3.44
2017-11-01T00:48:38.592Z,3.43
2017-11-01T00:49:38.466Z,3.36
2017-11-01T00:50:38.340Z,3.42
2017-11-01T00:51:38.215Z,3.50
2017-11-01T00:52:38.090Z,3.47
2017-11-01T00:53:37.963Z,3.49
2017-11-01T00:54:37.835Z,3.49
2017-11-01T00:55:37.711Z,3.52
2017-11-01T00:56:37.591Z,3.53
2017-11-01T00:57:37.459Z,3.54
2017-11-01T00:58:37.336Z,3.44
2017-11-01T00:59:37.207Z,3.54
2017-11-01T01:00:37.081Z,3.52
2017-11-01T01:01:36.960Z,3.58
2017-11-01T01:02:36.831Z,3.49
2017-11-01T01:03:36.705Z,3.47
2017-11-01T01:04:36.581Z,3.50
2017-11-01T01:05:36.453Z,3.49
2017-11-01T01:06:36.328Z,3.40
2017-11-01T01:07:36.201Z,3.33
2017-11-01T01:08:36.077Z,3.46
2017-11-01T01:09:35.950Z,3.42
2017-11-01T01:10:35.824Z,3.46
2017-11-01T01:11:35.697Z,3.42
2017-11-01T01:12:35.575Z,3.39
2017-11-01T01:13:35.446Z,3.42
2017-11-01T01:14:35.322Z,3.36
2017-11-01T01:15:35.196Z,3.33
2017-11-01T01:16:35.070Z,3.46
2017-11-01T01:17:34.946Z,3.46
2017-11-01T01:18:34.820Z,3.46
2017-11-01T01:19:34.693Z,3.36
2017-11-01T01:20:34.567Z,3.46
2017-11-01T01:21:34.442Z,3.49
2017-11-01T01:22:34.315Z,3.52
2017-11-01T01:23:34.190Z,3.46
2017-11-01T01:24:34.064Z,3.44
2017-11-01T01:25:33.938Z,3.52
2017-11-01T01:26:33.813Z,3.52
2017-11-01T01:27:33.689Z,3.53
2017-11-01T01:28:33.560Z,3.54
2017-11-01T01:29:33.435Z,3.60
2017-11-01T01:30:33.307Z,3.53
2017-11-01T01:31:33.237Z,3.47
2017-11-01T01:32:33.172Z,3.58
2017-11-01T01:33:32.931Z,3.52
2017-11-01T01:34:32.805Z,3.49
2017-11-01T01:35:32.680Z,3.46
2017-11-01T01:36:32.554Z,3.49
2017-11-01T01:37:32.426Z,3.50
2017-11-01T01:38:32.303Z,3.46
2017-11-01T01:39:32.176Z,3.53
2017-11-01T01:40:32.062Z,3.47
2017-11-01T01:41:31.924Z,3.44
2017-11-01T01:42:31.799Z,3.34
2017-11-01T01:43:31.673Z,3.43
2017-11-01T01:44:31.548Z,3.42
2017-11-01T01:45:31.419Z,3.39
2017-11-01T01:46:31.293Z,3.42
2017-11-01T01:47:31.175Z,3.43
2017-11-01T01:48:31.044Z,3.46
2017-11-01T01:49:30.918Z,3.40
2017-11-01T01:50:30.791Z,3.42
2017-11-01T01:51:30.667Z,3.36
2017-11-01T01:52:30.540Z,3.40
2017-11-01T01:53:30.415Z,3.36
2017-11-01T01:54:30.287Z,3.47
2017-11-01T01:55:30.165Z,3.42
2017-11-01T01:56:30.040Z,3.50
2017-11-01T01:57:29.913Z,3.53
2017-11-01T01:58:29.788Z,3.47
2017-11-01T01:59:29.664Z,3.50
2017-11-01T02:00:29.535Z,3.47
2017-11-01T02:01:29.407Z,3.44
2017-11-01T02:02:29.282Z,3.60
2017-11-01T02:03:29.163Z,3.52
2017-11-01T02:04:29.032Z,3.57
2017-11-01T02:05:28.905Z,3.64
2017-11-01T02:06:28.778Z,3.58
2017-11-01T02:07:28.655Z,3.54
2017-11-01T02:08:28.564Z,3.57
2017-11-01T02:09:28.401Z,3.58
2017-11-01T02:10:28.274Z,3.54
2017-11-01T02:11:28.149Z,3.71
2017-11-01T02:12:28.022Z,3.62
2017-11-01T02:13:27.899Z,3.70
2017-11-01T02:14:27.772Z,3.54
2017-11-01T02:15:27.647Z,3.65
2017-11-01T02:16:27.523Z,3.61
2017-11-01T02:17:27.393Z,3.57
2017-11-01T02:18:27.268Z,3.57
2017-11-01T02:19:27.142Z,3.54
2017-11-01T02:20:27.017Z,3.57
2017-11-01T02:21:26.894Z,3.62
2017-11-01T02:22:26.766Z,3.60
2017-11-01T02:23:26.639Z,3.67
2017-11-01T02:24:26.515Z,3.76
2017-11-01T02:25:26.388Z,3.65
2017-11-01T02:26:26.263Z,3.65
2017-11-01T02:27:26.136Z,3.65
2017-11-01T02:28:26.009Z,3.68
2017-11-01T02:29:25.883Z,3.60
2017-11-01T02:30:25.759Z,3.50
2017-11-01T02:31:25.633Z,3.54
2017-11-01T02:32:25.508Z,3.47
2017-11-01T02:33:25.379Z,3.54
2017-11-01T02:34:25.257Z,3.49
2017-11-01T02:35:25.132Z,3.42
2017-11-01T02:36:25.003Z,3.40
2017-11-01T02:37:24.876Z,3.42
2017-11-01T02:38:24.752Z,3.39
2017-11-01T02:39:24.625Z,3.43
2017-11-01T02:40:24.509Z,3.36
2017-11-01T02:41:24.373Z,3.39
2017-11-01T02:42:24.250Z,3.43
2017-11-01T02:43:24.122Z,3.43
2017-11-01T02:44:23.998Z,3.49
2017-11-01T02:45:23.871Z,3.47
2017-11-01T02:46:23.746Z,3.50
2017-11-01T02:47:23.619Z,3.60
2017-11-01T02:48:23.492Z,3.64
2017-11-01T02:49:23.373Z,3.60
2017-11-01T02:50:23.242Z,3.57
2017-11-01T02:51:23.117Z,3.57
2017-11-01T02:52:22.993Z,3.54
2017-11-01T02:53:22.863Z,3.47
2017-11-01T02:54:22.738Z,3.58
2017-11-01T02:55:22.611Z,3.54
2017-11-01T02:56:22.495Z,3.53
2017-11-01T02:57:22.366Z,3.47
2017-11-01T02:58:22.235Z,3.42
2017-11-01T02:59:22.107Z,3.43
2017-11-01T03:00:21.987Z,3.42
2017-11-01T03:01:21.855Z,3.44
2017-11-01T03:02:21.730Z,3.44
2017-11-01T03:03:21.605Z,3.34
2017-11-01T03:04:21.479Z,3.40
2017-11-01T03:05:21.356Z,3.46
2017-11-01T03:06:21.227Z,3.44
2017-11-01T03:07:21.104Z,3.44
2017-11-01T03:08:20.975Z,3.50
2017-11-01T03:09:20.846Z,3.53
2017-11-01T03:10:20.723Z,3.49
2017-11-01T03:11:20.602Z,3.52
2017-11-01T03:12:20.471Z,3.47
2017-11-01T03:13:20.344Z,3.42
2017-11-01T03:14:20.220Z,3.36
2017-11-01T03:15:20.092Z,3.44
2017-11-01T03:16:19.967Z,3.33
2017-11-01T03:17:19.841Z,3.49
2017-11-01T03:18:19.716Z,3.36
2017-11-01T03:19:19.589Z,3.34
2017-11-01T03:20:19.468Z,3.39
2017-11-01T03:21:19.338Z,3.31
2017-11-01T03:22:19.209Z,3.40
2017-11-01T03:23:19.090Z,3.36
2017-11-01T03:24:18.959Z,3.40
2017-11-01T03:25:18.834Z,3.44
2017-11-01T03:26:18.707Z,3.40
2017-11-01T03:27:18.584Z,3.39
2017-11-01T03:28:18.457Z,3.42
2017-11-01T03:29:18.331Z,3.46
2017-11-01T03:30:18.246Z,3.44
2017-11-01T03:31:18.182Z,3.43
2017-11-01T03:32:17.953Z,3.46
2017-11-01T03:33:17.827Z,3.40
2017-11-01T03:34:17.701Z,3.40
2017-11-01T03:35:17.574Z,3.52
2017-11-01T03:36:17.453Z,3.43
2017-11-01T03:37:17.321Z,3.49
2017-11-01T03:38:17.197Z,3.44
2017-11-01T03:39:17.073Z,3.47
2017-11-01T03:40:16.948Z,3.44
2017-11-01T03:41:16.829Z,3.34
2017-11-01T03:42:16.696Z,3.33
2017-11-01T03:43:16.567Z,3.39
2017-11-01T03:44:16.442Z,3.39
2017-11-01T03:45:16.317Z,3.36
2017-11-01T03:46:16.191Z,3.34
2017-11-01T03:47:16.066Z,3.43
2017-11-01T03:48:15.940Z,3.36
2017-11-01T03:49:15.813Z,3.36
2017-11-01T03:50:15.688Z,3.39
2017-11-01T03:51:15.562Z,3.44
2017-11-01T03:52:15.442Z,3.43
2017-11-01T03:53:15.316Z,3.36
2017-11-01T03:54:15.185Z,3.36
2017-11-01T03:55:15.060Z,3.36
2017-11-01T03:56:14.931Z,3.43
2017-11-01T03:57:14.807Z,3.50
2017-11-01T03:58:14.688Z,3.50
2017-11-01T03:59:14.554Z,3.42
2017-11-01T04:00:14.430Z,3.44
2017-11-01T04:01:14.302Z,3.40
2017-11-01T04:02:14.177Z,3.53
2017-11-01T04:03:14.053Z,3.57
2017-11-01T04:04:13.924Z,3.61
2017-11-01T04:05:13.800Z,3.49
2017-11-01T04:06:13.673Z,3.49
2017-11-01T04:07:13.548Z,3.54
2017-11-01T04:08:13.422Z,3.49
2017-11-01T04:09:13.294Z,3.53
2017-11-01T04:10:13.176Z,3.53
2017-11-01T04:11:13.046Z,3.49
2017-11-01T04:12:12.918Z,3.44
2017-11-01T04:13:12.792Z,3.54
2017-11-01T04:14:12.666Z,3.44
2017-11-01T04:15:12.541Z,3.50
2017-11-01T04:16:12.415Z,3.53
2017-11-01T04:17:12.289Z,3.52
2017-11-01T04:18:12.163Z,3.57
2017-11-01T04:19:12.037Z,3.57
2017-11-01T04:20:11.912Z,3.62
2017-11-01T04:21:11.784Z,3.64
2017-11-01T04:22:11.659Z,3.70
2017-11-01T04:23:11.534Z,3.68
2017-11-01T04:24:11.406Z,3.64
2017-11-01T04:25:11.285Z,3.72
2017-11-01T04:26:11.157Z,3.72
2017-11-01T04:27:11.029Z,3.72
2017-11-01T04:28:10.903Z,3.64
2017-11-01T04:29:10.776Z,3.79
2017-11-01T04:30:10.653Z,3.72
2017-11-01T04:31:10.524Z,3.70
2017-11-01T04:32:10.399Z,3.67
2017-11-01T04:33:10.271Z,3.75
2017-11-01T04:34:10.148Z,3.65
2017-11-01T04:35:10.020Z,3.72
2017-11-01T04:36:09.894Z,3.76
2017-11-01T04:37:09.769Z,3.70
2017-11-01T04:38:09.641Z,3.75
2017-11-01T04:39:09.515Z,3.75
2017-11-01T04:40:09.388Z,3.72
2017-11-01T04:41:09.261Z,3.71
2017-11-01T04:42:09.138Z,3.67
2017-11-01T04:43:09.011Z,3.75
2017-11-01T04:44:08.886Z,3.72
2017-11-01T04:45:08.758Z,3.64
2017-11-01T04:46:08.632Z,3.64
2017-11-01T04:47:08.505Z,3.64
2017-11-01T04:48:08.381Z,3.60
2017-11-01T04:49:08.252Z,3.62
2017-11-01T04:50:08.129Z,3.50
2017-11-01T04:51:08.001Z,3.65
2017-11-01T04:52:07.875Z,3.58
2017-11-01T04:53:07.749Z,3.67
2017-11-01T04:54:07.623Z,3.64
2017-11-01T04:55:07.497Z,3.52
2017-11-01T04:56:07.371Z,3.62
2017-11-01T04:57:07.245Z,3.49
2017-11-01T04:58:07.121Z,3.52
2017-11-01T04:59:06.992Z,3.58
2017-11-01T05:00:06.869Z,3.61
2017-11-01T05:01:06.740Z,3.64
2017-11-01T05:02:06.615Z,3.68
2017-11-01T05:03:06.489Z,3.62
2017-11-01T05:04:06.368Z,3.71
2017-11-01T05:05:06.239Z,3.78
2017-11-01T05:06:06.109Z,3.71
2017-11-01T05:07:05.988Z,3.72
2017-11-01T05:08:05.908Z,3.75
2017-11-01T05:09:05.733Z,3.64
2017-11-01T05:10:05.608Z,3.68
2017-11-01T05:11:05.487Z,3.70
2017-11-01T05:12:05.356Z,3.67
2017-11-01T05:13:05.243Z,3.72
2017-11-01T05:14:05.120Z,3.79
2017-11-01T05:15:05.015Z,3.88
2017-11-01T05:16:04.856Z,3.71
2017-11-01T05:17:04.733Z,3.76
2017-11-01T05:18:04.669Z,3.72
2017-11-01T05:19:04.599Z,3.89
2017-11-01T05:20:04.518Z,3.80
2017-11-01T05:21:04.368Z,3.90
2017-11-01T05:22:04.512Z,3.86
2017-11-01T05:23:04.249Z,3.76
2017-11-01T05:24:03.906Z,3.76
2017-11-01T05:25:03.851Z,3.88
2017-11-01T05:26:03.624Z,3.89
2017-11-01T05:27:03.573Z,3.89
2017-11-01T05:28:03.343Z,3.80
2017-11-01T05:29:03.214Z,3.83
2017-11-01T05:30:03.087Z,3.92
2017-11-01T05:31:02.967Z,3.86
2017-11-01T05:32:02.873Z,3.88
2017-11-01T05:33:02.709Z,3.92
2017-11-01T05:34:02.584Z,3.85
2017-11-01T05:35:02.457Z,3.89
2017-11-01T05:36:02.334Z,3.92
2017-11-01T05:37:02.207Z,3.90
2017-11-01T05:38:02.080Z,3.96
2017-11-01T05:39:01.964Z,3.94
2017-11-01T05:40:01.828Z,4.07
2017-11-01T05:41:01.701Z,4.15
2017-11-01T05:42:01.579Z,4.00
2017-11-01T05:43:01.451Z,4.00
2017-11-01T05:44:01.354Z,4.07
2017-11-01T05:45:01.199Z,4.07
2017-11-01T05:46:01.080Z,4.00
2017-11-01T05:47:00.947Z,3.98
2017-11-01T05:48:00.818Z,4.06
2017-11-01T05:49:00.693Z,3.94
2017-11-01T05:50:00.568Z,4.00
2017-11-01T05:51:00.441Z,4.04
2017-11-01T05:52:00.317Z,4.00
2017-11-01T05:53:00.194Z,4.07
2017-11-01T05:54:00.068Z,4.00
2017-11-01T05:54:59.939Z,3.94
2017-11-01T05:55:59.814Z,4.00
2017-11-01T05:57:01.511Z,3.96
2017-11-01T05:57:59.559Z,3.94
2017-11-01T05:58:59.463Z,3.88
2017-11-01T05:59:59.314Z,3.96
2017-11-01T06:00:59.181Z,3.90
2017-11-01T06:01:59.058Z,3.97
2017-11-01T06:02:58.936Z,3.94
2017-11-01T06:03:58.810Z,3.90
2017-11-01T06:04:58.851Z,3.90
2017-11-01T06:05:58.750Z,4.01
2017-11-01T06:06:58.668Z,3.96
2017-11-01T06:07:58.630Z,4.00
2017-11-01T06:08:58.483Z,4.03
2017-11-01T06:09:58.703Z,4.03
2017-11-01T06:10:57.929Z,4.06
2017-11-01T06:11:57.800Z,4.00
2017-11-01T06:12:57.675Z,4.08
2017-11-01T06:13:57.547Z,3.94
2017-11-01T06:14:57.422Z,4.07
2017-11-01T06:15:57.297Z,4.00
2017-11-01T06:16:57.169Z,3.98
2017-11-01T06:17:57.055Z,4.00
2017-11-01T06:18:56.918Z,4.10
2017-11-01T06:19:57.785Z,4.03
2017-11-01T06:20:56.666Z,4.00
2017-11-01T06:21:56.541Z,4.07
2017-11-01T06:22:56.420Z,4.01
2017-11-01T06:23:56.305Z,4.00
2017-11-01T06:24:56.168Z,4.04
2017-11-01T06:25:56.040Z,4.07
2017-11-01T06:26:55.921Z,4.06
2017-11-01T06:27:55.865Z,4.04
2017-11-01T06:28:55.661Z,3.98
2017-11-01T06:29:55.544Z,4.15
2017-11-01T06:30:55.410Z,4.08
2017-11-01T06:31:55.286Z,4.14
2017-11-01T06:32:55.158Z,4.18
2017-11-01T06:33:55.035Z,4.15
2017-11-01T06:34:54.907Z,4.19
2017-11-01T06:35:54.784Z,4.14
2017-11-01T06:36:54.656Z,4.14
2017-11-01T06:37:54.529Z,4.26
2017-11-01T06:38:54.406Z,4.19
2017-11-01T06:39:54.280Z,4.25
2017-11-01T06:40:54.154Z,4.29
2017-11-01T06:41:54.033Z,4.28
2017-11-01T06:42:53.916Z,4.25
2017-11-01T06:43:53.782Z,4.34
2017-11-01T06:44:53.662Z,4.36
2017-11-01T06:45:53.528Z,4.39
2017-11-01T06:46:53.405Z,4.37
2017-11-01T06:47:53.279Z,4.40
2017-11-01T06:48:53.743Z,4.46
2017-11-01T06:49:53.028Z,4.47
2017-11-01T06:50:52.902Z,4.52
2017-11-01T06:51:52.780Z,4.50
2017-11-01T06:52:52.651Z,4.59
2017-11-01T06:53:52.527Z,4.47
2017-11-01T06:54:52.403Z,4.47
2017-11-01T06:55:52.277Z,4.59
2017-11-01T06:56:52.151Z,4.57
2017-11-01T06:57:52.026Z,4.59
2017-11-01T06:58:51.900Z,4.52
2017-11-01T06:59:51.774Z,4.58
2017-11-01T07:00:51.654Z,4.64
2017-11-01T07:01:51.528Z,4.64
2017-11-01T07:02:51.400Z,4.73
2017-11-01T07:03:51.274Z,4.73
2017-11-01T07:04:51.149Z,4.76
2017-11-01T07:05:51.032Z,4.75
2017-11-01T07:06:50.901Z,4.80
2017-11-01T07:07:50.773Z,4.89
2017-11-01T07:08:50.648Z,4.83
2017-11-01T07:09:50.527Z,4.80
2017-11-01T07:10:50.399Z,4.89
2017-11-01T07:11:50.277Z,4.84
2017-11-01T07:12:50.147Z,4.88
2017-11-01T07:13:50.027Z,4.86
2017-11-01T07:14:49.900Z,4.95
2017-11-01T07:15:49.774Z,4.91
2017-11-01T07:16:49.651Z,5.01
2017-11-01T07:17:49.751Z,4.96
2017-11-01T07:18:49.400Z,4.98
2017-11-01T07:19:49.277Z,4.98
2017-11-01T07:20:49.152Z,4.96
2017-11-01T07:21:49.028Z,5.01
2017-11-01T07:22:48.901Z,5.04
2017-11-01T07:23:48.776Z,5.09
2017-11-01T07:24:48.649Z,5.12
2017-11-01T07:25:48.530Z,5.14
2017-11-01T07:26:48.403Z,5.17
2017-11-01T07:27:48.277Z,5.25
2017-11-01T07:28:48.152Z,5.27
2017-11-01T07:29:48.029Z,5.20
2017-11-01T07:30:47.904Z,5.34
2017-11-01T07:31:47.780Z,5.46
2017-11-01T07:32:47.655Z,5.49
2017-11-01T07:33:47.531Z,5.52
2017-11-01T07:34:47.407Z,5.66
2017-11-01T07:35:47.281Z,5.73
2017-11-01T07:36:47.159Z,5.70
2017-11-01T07:37:47.036Z,5.74
2017-11-01T07:38:46.915Z,5.82
2017-11-01T07:39:46.784Z,5.86
2017-11-01T07:40:46.660Z,6.00
2017-11-01T07:41:46.537Z,5.95
2017-11-01T07:42:46.413Z,6.09
2017-11-01T07:43:46.290Z,6.10
2017-11-01T07:44:46.161Z,6.26
2017-11-01T07:45:46.039Z,6.29
2017-11-01T07:46:45.919Z,6.44
2017-11-01T07:47:45.789Z,6.46
2017-11-01T07:48:45.667Z,6.54
2017-11-01T07:49:45.543Z,6.48
2017-11-01T07:50:45.417Z,6.58
2017-11-01T07:51:45.295Z,6.56
2017-11-01T07:52:45.168Z,6.65
2017-11-01T07:53:47.029Z,6.63
2017-11-01T07:54:44.926Z,6.68
2017-11-01T07:55:44.798Z,6.68
2017-11-01T07:56:44.675Z,6.65
2017-11-01T07:57:44.552Z,6.69
2017-11-01T07:58:44.424Z,6.79
2017-11-01T07:59:44.301Z,6.86
2017-11-01T08:00:44.177Z,6.80
2017-11-01T08:01:44.056Z,6.73
2017-11-01T08:02:43.930Z,6.90
2017-11-01T08:03:43.807Z,6.72
2017-11-01T08:04:43.682Z,6.79
2017-11-01T08:05:43.557Z,6.87
2017-11-01T08:06:43.436Z,6.95
2017-11-01T08:07:43.316Z,7.05
2017-11-01T08:08:43.187Z,7.05
2017-11-01T08:09:43.065Z,7.16
2017-11-01T08:10:42.941Z,7.42
2017-11-01T08:11:42.820Z,7.40
2017-11-01T08:12:42.693Z,7.55
2017-11-01T08:13:42.569Z,7.78
2017-11-01T08:14:42.446Z,7.87
2017-11-01T08:15:42.326Z,8.02
2017-11-01T08:16:42.198Z,8.02
2017-11-01T08:17:42.077Z,8.15
2017-11-01T08:18:41.953Z,8.20
2017-11-01T08:19:41.835Z,8.18
2017-11-01T08:20:41.708Z,8.17
2017-11-01T08:21:41.583Z,8.07
2017-11-01T08:22:41.461Z,8.20
2017-11-01T08:23:41.339Z,8.29
2017-11-01T08:24:41.220Z,8.42
2017-11-01T08:25:41.286Z,8.57
2017-11-01T08:26:40.967Z,8.57
2017-11-01T08:27:40.846Z,8.72
2017-11-01T08:28:40.874Z,8.78
2017-11-01T08:29:40.604Z,8.99
2017-11-01T08:30:40.478Z,9.05
2017-11-01T08:31:40.359Z,9.16
2017-11-01T08:32:42.037Z,9.30
2017-11-01T08:33:40.112Z,9.35
2017-11-01T08:34:39.991Z,9.32
2017-11-01T08:35:39.866Z,9.24
2017-11-01T08:36:39.741Z,9.15
2017-11-01T08:37:39.621Z,9.06
2017-11-01T08:38:39.500Z,9.21
2017-11-01T08:39:39.385Z,9.30
2017-11-01T08:40:39.253Z,9.25
2017-11-01T08:41:39.144Z,9.28
2017-11-01T08:42:39.022Z,9.40
2017-11-01T08:43:38.889Z,9.31
2017-11-01T08:44:38.764Z,9.42
2017-11-01T08:45:38.645Z,9.34
2017-11-01T08:46:38.520Z,9.40
2017-11-01T08:47:38.399Z,9.56
2017-11-01T08:48:38.275Z,9.66
2017-11-01T08:49:38.157Z,9.73
2017-11-01T08:50:38.038Z,9.81
2017-11-01T08:51:37.910Z,9.76
2017-11-01T08:52:37.785Z,9.88
2017-11-01T08:53:37.662Z,10.01
2017-11-01T08:54:37.542Z,10.25
2017-11-01T08:55:37.504Z,10.21
2017-11-01T08:56:37.298Z,10.15
2017-11-01T08:57:37.178Z,10.12
2017-11-01T08:58:37.059Z,10.14
2017-11-01T08:59:36.935Z,9.91
2017-11-01T09:00:36.813Z,9.85
2017-11-01T09:01:37.069Z,9.83
2017-11-01T09:02:36.570Z,9.66
2017-11-01T09:03:36.451Z,9.63
2017-11-01T09:04:36.334Z,9.60
2017-11-01T09:05:36.212Z,9.56
2017-11-01T09:06:36.187Z,9.52
2017-11-01T09:07:35.963Z,9.45
2017-11-01T09:08:38.548Z,9.50
2017-11-01T09:09:35.718Z,9.49
2017-11-01T09:10:35.597Z,9.58
2017-11-01T09:11:35.498Z,9.57
2017-11-01T09:12:35.445Z,9.49
2017-11-01T09:13:35.478Z,9.56
2017-11-01T09:14:35.975Z,9.42
2017-11-01T09:15:35.074Z,9.42
2017-11-01T09:16:34.981Z,9.32
2017-11-01T09:17:34.759Z,9.30
2017-11-01T09:18:34.669Z,9.16
2017-11-01T09:19:34.505Z,9.25
2017-11-01T09:20:34.433Z,9.23
2017-11-01T09:21:34.259Z,9.27
2017-11-01T09:22:34.140Z,9.27
2017-11-01T09:23:34.015Z,9.10
2017-11-01T09:24:33.892Z,9.18
2017-11-01T09:25:33.792Z,9.04
2017-11-01T09:26:33.698Z,9.18
2017-11-01T09:27:33.529Z,9.24
2017-11-01T09:28:33.402Z,9.21
2017-11-01T09:29:33.286Z,9.20
2017-11-01T09:30:33.160Z,9.28
2017-11-01T09:31:33.038Z,9.21
2017-11-01T09:32:32.915Z,9.21
2017-11-01T09:33:32.808Z,9.24
2017-11-01T09:34:32.674Z,9.10
2017-11-01T09:35:32.550Z,9.20
2017-11-01T09:36:32.430Z,9.21
2017-11-01T09:37:32.310Z,9.16
2017-11-01T09:38:32.185Z,9.24
2017-11-01T09:39:32.065Z,9.16
2017-11-01T09:40:31.944Z,9.13
2017-11-01T09:41:31.820Z,9.21
2017-11-01T09:42:31.698Z,9.16
2017-11-01T09:43:31.811Z,9.24
2017-11-01T09:44:31.454Z,9.23
2017-11-01T09:45:31.413Z,9.16
2017-11-01T09:46:32.302Z,9.15
2017-11-01T09:47:31.092Z,9.10
2017-11-01T09:48:30.962Z,9.20
2017-11-01T09:49:30.843Z,9.27
2017-11-01T09:50:30.721Z,9.31
2017-11-01T09:51:30.602Z,9.25
2017-11-01T09:52:30.476Z,9.34
2017-11-01T09:53:30.354Z,9.32
2017-11-01T09:54:30.330Z,9.34
2017-11-01T09:55:32.055Z,9.40
2017-11-01T09:56:29.997Z,9.52
2017-11-01T09:57:29.868Z,9.58
2017-11-01T09:58:29.754Z,9.60
2017-11-01T09:59:29.648Z,9.63
2017-11-01T10:00:29.523Z,9.66
2017-11-01T10:01:29.382Z,9.71
2017-11-01T10:02:29.258Z,9.75
2017-11-01T10:03:29.146Z,9.78
2017-11-01T10:04:29.014Z,9.89
2017-11-01T10:05:28.894Z,9.97
2017-11-01T10:06:28.770Z,9.93
2017-11-01T10:07:28.661Z,10.06
2017-11-01T10:08:28.526Z,9.99
2017-11-01T10:09:28.605Z,10.03
2017-11-01T10:10:28.282Z,9.96
2017-11-01T10:11:28.190Z,9.96
2017-11-01T10:12:28.046Z,9.86
2017-11-01T10:13:27.918Z,9.76
2017-11-01T10:14:27.797Z,9.75
2017-11-01T10:15:27.676Z,9.75
2017-11-01T10:16:27.551Z,9.71
2017-11-01T10:17:27.433Z,9.78
2017-11-01T10:18:27.311Z,9.76
2017-11-01T10:19:27.188Z,9.78
2017-11-01T10:20:27.064Z,9.79
2017-11-01T10:21:26.946Z,9.73
2017-11-01T10:22:26.824Z,9.89
2017-11-01T10:23:26.795Z,9.93
2017-11-01T10:24:26.583Z,10.10
2017-11-01T10:25:26.456Z,10.03
2017-11-01T10:26:26.336Z,10.00
2017-11-01T10:27:26.214Z,10.06
2017-11-01T10:28:26.090Z,10.14
2017-11-01T10:29:25.973Z,10.14
2017-11-01T10:30:25.847Z,10.15
2017-11-01T10:31:25.726Z,10.21
2017-11-01T10:32:25.606Z,10.14
2017-11-01T10:33:25.491Z,10.07
2017-11-01T10:34:25.477Z,10.04
2017-11-01T10:35:25.241Z,10.04
2017-11-01T10:36:25.154Z,10.04
2017-11-01T10:37:24.997Z,10.15
2017-11-01T10:38:24.876Z,10.15
2017-11-01T10:39:24.753Z,10.03
2017-11-01T10:40:24.643Z,10.18
2017-11-01T10:41:24.511Z,10.37
2017-11-01T10:42:24.391Z,10.42
2017-11-01T10:43:24.267Z,10.46
2017-11-01T10:44:24.191Z,10.53
2017-11-01T10:45:24.026Z,10.42
2017-11-01T10:46:23.902Z,10.46
2017-11-01T10:47:23.779Z,10.58
2017-11-01T10:48:23.661Z,10.58
2017-11-01T10:49:23.537Z,10.47
2017-11-01T10:50:23.416Z,10.52
2017-11-01T10:51:23.366Z,10.43
2017-11-01T10:52:23.179Z,10.42
2017-11-01T10:53:23.481Z,10.37
2017-11-01T10:54:22.943Z,10.37
2017-11-01T10:55:22.815Z,10.40
2017-11-01T10:56:22.691Z,10.40
2017-11-01T10:57:22.566Z,10.22
2017-11-01T10:58:22.444Z,10.40
2017-11-01T10:59:22.326Z,10.33
2017-11-01T11:00:22.209Z,10.37
2017-11-01T11:01:22.081Z,10.51
2017-11-01T11:02:21.965Z,10.43
2017-11-01T11:03:21.839Z,10.51
2017-11-01T11:04:21.718Z,10.46
2017-11-01T11:05:21.596Z,10.60
2017-11-01T11:06:21.474Z,10.46
2017-11-01T11:07:21.352Z,10.43
2017-11-01T11:08:21.231Z,10.55
2017-11-01T11:09:21.109Z,10.58
2017-11-01T11:10:20.989Z,10.66
2017-11-01T11:11:20.868Z,10.68
2017-11-01T11:12:20.746Z,10.80
2017-11-01T11:13:20.624Z,10.94
2017-11-01T11:14:20.502Z,10.96
2017-11-01T11:15:20.384Z,11.01
2017-11-01T11:16:20.259Z,11.06
2017-11-01T11:17:20.139Z,11.10
2017-11-01T11:18:20.021Z,11.10
2017-11-01T11:19:19.900Z,11.32
2017-11-01T11:20:19.777Z,11.36
2017-11-01T11:21:19.655Z,11.34
2017-11-01T11:22:19.538Z,11.32
2017-11-01T11:23:19.413Z,11.32
2017-11-01T11:24:19.289Z,11.28
2017-11-01T11:25:19.182Z,11.36
2017-11-01T11:26:19.051Z,11.28
2017-11-01T11:27:18.928Z,11.17
2017-11-01T11:28:18.807Z,11.20
2017-11-01T11:29:18.686Z,11.34
2017-11-01T11:30:18.565Z,11.32
2017-11-01T11:31:18.445Z,11.35
2017-11-01T11:32:18.326Z,11.35
2017-11-01T11:33:18.204Z,11.39
2017-11-01T11:34:18.081Z,11.47
2017-11-01T11:35:17.960Z,11.47
2017-11-01T11:36:17.868Z,11.53
2017-11-01T11:37:17.731Z,11.64
2017-11-01T11:38:17.598Z,11.62
2017-11-01T11:39:17.497Z,11.52
2017-11-01T11:40:17.355Z,11.43
2017-11-01T11:41:17.234Z,11.38
2017-11-01T11:42:17.126Z,11.29
2017-11-01T11:43:16.992Z,11.35
2017-11-01T11:44:18.582Z,11.41
2017-11-01T11:45:16.755Z,11.35
2017-11-01T11:46:16.631Z,11.43
2017-11-01T11:47:16.513Z,11.46
2017-11-01T11:48:16.389Z,11.46
2017-11-01T11:49:16.276Z,11.50
2017-11-01T11:50:16.147Z,11.64
2017-11-01T11:51:16.027Z,11.68
2017-11-01T11:52:15.906Z,11.85
2017-11-01T11:53:15.785Z,11.78
2017-11-01T11:54:15.664Z,11.86
2017-11-01T11:55:15.547Z,11.94
2017-11-01T11:56:15.426Z,12.02
2017-11-01T11:57:15.301Z,12.02
2017-11-01T11:58:15.184Z,11.99
2017-11-01T11:59:15.067Z,11.96
2017-11-01T12:00:14.943Z,12.06
2017-11-01T12:01:14.834Z,12.09
2017-11-01T12:02:14.700Z,12.08
2017-11-01T12:03:14.583Z,12.05
2017-11-01T12:04:14.455Z,12.06
2017-11-01T12:05:14.338Z,11.96
2017-11-01T12:06:14.217Z,11.94
2017-11-01T12:07:14.096Z,11.93
2017-11-01T12:08:13.976Z,11.86
2017-11-01T12:09:14.471Z,11.85
2017-11-01T12:10:13.821Z,11.80
2017-11-01T12:11:14.816Z,11.82
2017-11-01T12:12:13.496Z,11.97
2017-11-01T12:13:13.404Z,11.99
2017-11-01T12:14:13.263Z,12.11
2017-11-01T12:15:13.131Z,12.19
2017-11-01T12:16:13.013Z,12.31
2017-11-01T12:17:12.901Z,12.37
2017-11-01T12:18:12.768Z,12.45
2017-11-01T12:19:12.648Z,12.38
2017-11-01T12:20:12.527Z,12.49
2017-11-01T12:21:12.409Z,12.49
2017-11-01T12:22:12.288Z,12.63
2017-11-01T12:23:12.167Z,12.63
2017-11-01T12:24:12.048Z,12.78
2017-11-01T12:25:11.924Z,12.81
2017-11-01T12:26:11.804Z,12.93
2017-11-01T12:27:11.687Z,12.87
2017-11-01T12:28:11.564Z,12.88
2017-11-01T12:29:11.443Z,12.87
2017-11-01T12:30:11.325Z,12.82
2017-11-01T12:31:11.203Z,12.81
2017-11-01T12:32:11.087Z,12.79
2017-11-01T12:33:10.965Z,12.88
2017-11-01T12:34:10.943Z,12.97
2017-11-01T12:35:10.724Z,12.85
2017-11-01T12:36:10.604Z,12.87
2017-11-01T12:37:10.483Z,12.88
2017-11-01T12:38:10.472Z,12.82
2017-11-01T12:39:10.240Z,12.75
2017-11-01T12:40:10.120Z,12.77
2017-11-01T12:41:10.006Z,12.89
2017-11-01T12:42:09.882Z,12.82
2017-11-01T12:43:09.833Z,12.89
2017-11-01T12:44:09.640Z,13.03
2017-11-01T12:45:09.521Z,13.11
2017-11-01T12:46:09.403Z,13.07
2017-11-01T12:47:09.279Z,13.00
2017-11-01T12:48:09.434Z,12.97
2017-11-01T12:49:09.286Z,13.03
2017-11-01T12:50:09.113Z,13.02
2017-11-01T12:51:08.802Z,13.06
2017-11-01T12:52:08.681Z,13.11
2017-11-01T12:53:08.560Z,13.27
2017-11-01T12:54:08.441Z,13.36
2017-11-01T12:55:08.318Z,13.56
2017-11-01T12:56:08.198Z,13.65
2017-11-01T12:57:08.146Z,13.62
2017-11-01T12:58:08.003Z,13.63
2017-11-01T12:59:07.853Z,13.40
2017-11-01T13:00:07.746Z,13.59
2017-11-01T13:01:07.600Z,13.61
2017-11-01T13:02:07.481Z,13.70
2017-11-01T13:03:07.360Z,13.74
2017-11-01T13:04:07.238Z,13.95
2017-11-01T13:05:07.119Z,14.20
2017-11-01T13:06:06.999Z,14.50
2017-11-01T13:07:06.880Z,14.81
2017-11-01T13:08:06.853Z,15.42
2017-11-01T13:09:06.642Z,15.78
2017-11-01T13:10:06.520Z,16.48
2017-11-01T13:11:06.401Z,16.78